createdAt,value
2023-05-24T00:02:27.256Z,91.85
2023-05-24T00:04:54.362Z,91.77
2023-05-24T00:07:21.773Z,92.05
2023-05-24T00:09:49.204Z,92.02
2023-05-24T00:12:17.048Z,91.57
2023-05-24T00:14:44.545Z,91.51
2023-05-24T00:17:13.465Z,91.38
2023-05-24T00:19:40.770Z,91.44
2023-05-24T00:22:08.158Z,91.12
2023-05-24T00:24:35.682Z,90.89
2023-05-24T00:27:03.391Z,91.22
2023-05-24T00:29:32.322Z,91.38
2023-05-24T00:31:59.482Z,91.15
2023-05-24T00:34:26.564Z,91.24
2023-05-24T00:36:53.769Z,91.02
2023-05-24T00:39:20.909Z,91.00
2023-05-24T00:41:48.070Z,91.07
2023-05-24T00:44:15.432Z,91.08
2023-05-24T00:46:42.832Z,90.97
2023-05-24T00:49:10.813Z,90.93
2023-05-24T00:51:38.901Z,91.22
2023-05-24T00:54:07.223Z,91.36
2023-05-24T00:56:34.584Z,91.26
2023-05-24T00:59:02.931Z,91.26
2023-05-24T01:01:31.614Z,91.08
2023-05-24T01:04:00.407Z,91.20
2023-05-24T01:06:29.287Z,91.08
2023-05-24T01:09:20.373Z,90.99
2023-05-24T01:12:20.400Z,91.05
2023-05-24T01:15:10.824Z,91.21
2023-05-24T01:17:54.792Z,91.22
2023-05-24T01:20:23.989Z,91.32
2023-05-24T01:23:22.412Z,91.29
2023-05-24T01:26:25.190Z,91.54
2023-05-24T01:28:54.480Z,91.91
2023-05-24T01:31:23.058Z,92.03
2023-05-24T01:33:50.550Z,91.88
2023-05-24T01:36:17.773Z,91.87
2023-05-24T01:38:46.129Z,92.03
2023-05-24T01:41:35.208Z,92.18
2023-05-24T01:44:20.727Z,91.92
2023-05-24T01:46:54.170Z,91.84
2023-05-24T01:49:30.750Z,91.90
2023-05-24T01:52:05.710Z,91.89
2023-05-24T01:54:38.226Z,91.83
2023-05-24T01:57:10.681Z,91.95
2023-05-24T01:59:42.732Z,92.21
2023-05-24T02:02:11.427Z,92.13
2023-05-24T02:04:38.536Z,92.14
2023-05-24T02:07:05.876Z,92.05
2023-05-24T02:09:33.843Z,91.98
2023-05-24T02:12:00.790Z,91.70
2023-05-24T02:14:28.245Z,91.80
2023-05-24T02:16:59.501Z,91.96
2023-05-24T02:19:26.841Z,91.97
2023-05-24T02:21:53.987Z,92.12
2023-05-24T02:24:21.126Z,91.92
2023-05-24T02:26:48.077Z,92.00
2023-05-24T02:29:15.947Z,92.16
2023-05-24T02:31:43.157Z,92.08
2023-05-24T02:34:10.441Z,92.17
2023-05-24T02:36:37.789Z,92.34
2023-05-24T02:39:05.220Z,92.29
2023-05-24T02:41:32.744Z,92.57
2023-05-24T02:43:59.957Z,92.61
2023-05-24T02:46:27.301Z,92.92
2023-05-24T02:48:54.351Z,93.00
2023-05-24T02:51:21.607Z,92.90
2023-05-24T02:53:51.720Z,92.89
2023-05-24T02:56:18.892Z,93.06
2023-05-24T02:58:46.370Z,93.08
2023-05-24T03:01:13.897Z,93.01
2023-05-24T03:03:41.951Z,92.91
2023-05-24T03:06:09.165Z,92.97
2023-05-24T03:08:38.132Z,92.86
2023-05-24T03:11:05.232Z,93.10
2023-05-24T03:13:32.295Z,93.00
2023-05-24T03:15:59.442Z,93.18
2023-05-24T03:18:26.781Z,93.09
2023-05-24T03:20:54.328Z,92.93
2023-05-24T03:23:21.415Z,93.25
2023-05-24T03:25:48.929Z,92.92
2023-05-24T03:28:16.582Z,93.01
2023-05-24T03:30:43.763Z,93.33
2023-05-24T03:33:11.417Z,93.70
2023-05-24T03:35:38.346Z,93.76
2023-05-24T03:38:05.295Z,94.04
2023-05-24T03:40:33.972Z,93.78
2023-05-24T03:43:01.873Z,93.92
2023-05-24T03:45:39.228Z,94.03
2023-05-24T03:48:07.519Z,94.04
2023-05-24T03:50:34.756Z,94.35
2023-05-24T03:53:01.695Z,94.19
2023-05-24T03:55:28.650Z,94.02
2023-05-24T03:57:55.575Z,93.96
2023-05-24T04:00:22.725Z,93.71
2023-05-24T04:02:49.827Z,93.71
2023-05-24T04:05:17.218Z,93.89
2023-05-24T04:07:46.725Z,93.49
2023-05-24T04:10:13.866Z,93.53
2023-05-24T04:12:41.818Z,93.65
2023-05-24T04:15:09.498Z,93.51
2023-05-24T04:17:36.669Z,93.41
2023-05-24T04:20:05.888Z,93.05
2023-05-24T04:22:32.885Z,92.83
2023-05-24T04:25:00.196Z,92.49
2023-05-24T04:27:27.648Z,93.05
2023-05-24T04:29:54.741Z,93.07
2023-05-24T04:32:22.111Z,92.96
2023-05-24T04:34:49.447Z,92.91
2023-05-24T04:37:17.721Z,93.27
2023-05-24T04:39:45.532Z,92.96
2023-05-24T04:42:13.371Z,92.46
2023-05-24T04:44:44.809Z,92.23
2023-05-24T04:47:13.149Z,92.73
2023-05-24T04:49:40.536Z,92.41
2023-05-24T04:52:08.290Z,92.26
2023-05-24T04:54:35.229Z,92.23
2023-05-24T04:57:02.174Z,92.39
2023-05-24T04:59:29.117Z,92.09
2023-05-24T05:01:56.738Z,91.78
2023-05-24T05:04:23.840Z,92.14
2023-05-24T05:06:50.874Z,91.89
2023-05-24T05:09:18.012Z,91.69
2023-05-24T05:11:47.101Z,91.37
2023-05-24T05:14:14.725Z,91.95
2023-05-24T05:16:42.916Z,91.23
2023-05-24T05:19:09.987Z,91.06
2023-05-24T05:21:37.133Z,91.15
2023-05-24T05:24:04.485Z,91.16
2023-05-24T05:26:31.939Z,90.90
2023-05-24T05:28:59.200Z,91.25
2023-05-24T05:31:26.129Z,91.23
2023-05-24T05:33:53.082Z,91.58
2023-05-24T05:36:20.121Z,91.50
2023-05-24T05:38:47.174Z,91.71
2023-05-24T05:41:14.113Z,92.03
2023-05-24T05:43:41.261Z,91.98
2023-05-24T05:46:08.389Z,91.75
2023-05-24T05:48:35.457Z,90.84
2023-05-24T05:51:02.806Z,90.64
2023-05-24T05:53:29.741Z,90.38
2023-05-24T05:55:56.693Z,90.36
2023-05-24T05:58:23.976Z,90.29
2023-05-24T06:00:51.614Z,89.81
2023-05-24T06:03:19.091Z,89.64
2023-05-24T06:05:46.203Z,89.77
2023-05-24T06:08:13.163Z,89.43
2023-05-24T06:10:40.497Z,89.45
2023-05-24T06:13:08.054Z,89.61
2023-05-24T06:15:35.328Z,89.57
2023-05-24T06:18:02.926Z,89.84
2023-05-24T06:20:30.229Z,89.56
2023-05-24T06:22:57.806Z,89.70
2023-05-24T06:25:24.920Z,89.39
2023-05-24T06:27:52.285Z,89.20
2023-05-24T06:30:19.558Z,89.14
2023-05-24T06:32:46.789Z,89.52
2023-05-24T06:35:14.282Z,89.27
2023-05-24T06:37:41.610Z,89.62
2023-05-24T06:40:09.986Z,89.19
2023-05-24T06:42:37.581Z,89.16
2023-05-24T06:45:05.210Z,88.86
2023-05-24T06:47:32.578Z,88.47
2023-05-24T06:50:01.468Z,88.26
2023-05-24T06:52:28.691Z,88.42
2023-05-24T06:54:56.129Z,87.83
2023-05-24T06:57:23.671Z,87.83
2023-05-24T06:59:50.745Z,87.39
2023-05-24T07:02:17.866Z,86.82
2023-05-24T07:04:44.950Z,87.23
2023-05-24T07:07:13.500Z,86.30
2023-05-24T07:09:42.595Z,86.36
2023-05-24T07:12:09.809Z,86.45
2023-05-24T07:14:37.093Z,86.29
2023-05-24T07:17:05.459Z,85.79
2023-05-24T07:19:35.086Z,85.58
2023-05-24T07:22:02.399Z,85.79
2023-05-24T07:24:30.110Z,85.96
2023-05-24T07:26:57.950Z,86.19
2023-05-24T07:29:26.446Z,86.13
2023-05-24T07:31:56.607Z,86.31
2023-05-24T07:34:27.890Z,86.50
2023-05-24T07:36:55.190Z,86.75
2023-05-24T07:39:22.450Z,86.98
2023-05-24T07:41:51.285Z,86.61
2023-05-24T07:44:20.158Z,86.57
2023-05-24T07:46:47.544Z,86.61
2023-05-24T07:49:14.572Z,86.71
2023-05-24T07:51:42.055Z,86.18
2023-05-24T07:54:09.066Z,86.23
2023-05-24T07:56:36.960Z,86.20
2023-05-24T07:59:05.154Z,85.83
2023-05-24T08:01:34.694Z,85.34
2023-05-24T08:04:04.491Z,85.24
2023-05-24T08:06:35.485Z,85.19
2023-05-24T08:09:10.661Z,84.91
2023-05-24T08:11:41.692Z,84.57
2023-05-24T08:14:15.973Z,84.49
2023-05-24T08:16:48.299Z,84.50
2023-05-24T08:19:19.684Z,83.95
2023-05-24T08:21:52.811Z,82.90
2023-05-24T08:24:21.439Z,82.93
2023-05-24T08:26:48.845Z,82.62
2023-05-24T08:29:18.022Z,83.14
2023-05-24T08:31:45.208Z,83.47
2023-05-24T08:34:13.643Z,81.78
2023-05-24T08:36:43.530Z,82.46
2023-05-24T08:39:10.661Z,82.61
2023-05-24T08:41:39.352Z,82.12
2023-05-24T08:44:10.072Z,82.52
2023-05-24T08:46:39.120Z,82.21
2023-05-24T08:49:08.368Z,82.21
2023-05-24T08:51:39.329Z,81.61
2023-05-24T08:54:08.109Z,81.83
2023-05-24T08:56:35.796Z,81.37
2023-05-24T08:59:03.336Z,81.73
2023-05-24T09:01:32.779Z,81.54
2023-05-24T09:04:05.241Z,80.83
2023-05-24T09:06:33.673Z,81.47
2023-05-24T09:09:04.704Z,81.35
2023-05-24T09:11:35.183Z,80.97
2023-05-24T09:14:02.918Z,81.03
2023-05-24T09:16:30.419Z,80.49
2023-05-24T09:18:57.494Z,80.07
2023-05-24T09:21:25.947Z,79.39
2023-05-24T09:23:54.562Z,79.75
2023-05-24T09:26:24.387Z,78.91
2023-05-24T09:28:55.565Z,79.55
2023-05-24T09:31:36.183Z,79.96
2023-05-24T09:34:04.566Z,80.43
2023-05-24T09:36:37.075Z,80.81
2023-05-24T09:39:10.829Z,80.97
2023-05-24T09:41:38.856Z,80.68
2023-05-24T09:44:07.856Z,80.81
2023-05-24T09:46:38.982Z,80.59
2023-05-24T09:49:08.696Z,80.69
2023-05-24T09:51:42.407Z,81.04
2023-05-24T09:54:10.209Z,80.49
2023-05-24T09:56:41.081Z,80.98
2023-05-24T09:59:09.364Z,81.04
2023-05-24T10:01:36.729Z,81.09
2023-05-24T10:04:09.316Z,80.28
2023-05-24T10:06:38.773Z,80.09
2023-05-24T10:09:07.573Z,80.41
2023-05-24T10:11:38.745Z,79.83
2023-05-24T10:14:10.058Z,79.83
2023-05-24T10:16:40.753Z,79.20
2023-05-24T10:19:08.899Z,79.53
2023-05-24T10:21:41.453Z,78.82
2023-05-24T10:24:12.050Z,77.81
2023-05-24T10:26:42.849Z,77.96
2023-05-24T10:29:13.412Z,78.41
2023-05-24T10:31:42.812Z,76.97
2023-05-24T10:34:10.776Z,77.26
2023-05-24T10:36:40.855Z,78.63
2023-05-24T10:39:13.762Z,78.54
2023-05-24T10:41:42.690Z,76.57
2023-05-24T10:44:14.302Z,75.08
2023-05-24T10:47:11.160Z,75.83
2023-05-24T10:49:55.408Z,76.13
2023-05-24T10:52:34.497Z,76.61
2023-05-24T10:55:09.962Z,77.26
2023-05-24T10:57:39.002Z,76.56
2023-05-24T11:00:34.571Z,76.12
2023-05-24T11:03:07.203Z,76.84
2023-05-24T11:05:36.289Z,76.21
2023-05-24T11:08:04.645Z,76.23
2023-05-24T11:10:32.788Z,76.73
2023-05-24T11:13:04.342Z,76.42
2023-05-24T11:15:31.364Z,76.85
2023-05-24T11:18:13.119Z,76.71
2023-05-24T11:20:43.269Z,76.34
2023-05-24T11:23:11.882Z,74.76
2023-05-24T11:25:39.585Z,75.27
2023-05-24T11:28:12.110Z,74.35
2023-05-24T11:30:45.694Z,74.51
2023-05-24T11:33:24.415Z,73.65
2023-05-24T11:35:54.761Z,74.45
2023-05-24T11:38:24.931Z,74.50
2023-05-24T11:40:52.490Z,74.92
2023-05-24T11:43:22.808Z,75.46
2023-05-24T11:45:51.367Z,75.07
2023-05-24T11:48:20.234Z,74.44
2023-05-24T11:50:51.861Z,74.45
2023-05-24T11:53:21.619Z,74.78
2023-05-24T11:55:49.314Z,74.16
2023-05-24T11:58:54.854Z,74.36
2023-05-24T12:01:27.672Z,73.72
2023-05-24T12:03:55.562Z,73.19
2023-05-24T12:06:23.360Z,72.17
2023-05-24T12:08:50.826Z,72.85
2023-05-24T12:11:18.590Z,72.69
2023-05-24T12:13:46.381Z,73.37
2023-05-24T12:16:14.777Z,73.82
2023-05-24T12:18:51.425Z,73.48
2023-05-24T12:21:31.909Z,73.46
2023-05-24T12:24:22.559Z,74.03
2023-05-24T12:26:51.322Z,73.83
2023-05-24T12:29:21.111Z,73.69
2023-05-24T12:31:49.573Z,73.49
2023-05-24T12:34:21.563Z,73.56
2023-05-24T12:36:49.364Z,73.68
2023-05-24T12:39:36.695Z,73.76
2023-05-24T12:42:05.068Z,73.10
2023-05-24T12:44:35.209Z,72.69
2023-05-24T12:47:04.139Z,73.05
2023-05-24T12:49:32.283Z,72.26
2023-05-24T12:52:00.162Z,73.10
2023-05-24T12:54:28.803Z,72.82
2023-05-24T12:56:57.912Z,72.25
2023-05-24T12:59:27.656Z,72.74
2023-05-24T13:01:54.691Z,72.81
2023-05-24T13:04:23.474Z,72.95
2023-05-24T13:06:50.928Z,72.11
2023-05-24T13:09:19.472Z,71.74
2023-05-24T13:11:47.412Z,71.36
2023-05-24T13:14:17.222Z,71.69
2023-05-24T13:16:45.139Z,71.87
2023-05-24T13:19:12.904Z,71.73
2023-05-24T13:21:40.659Z,72.13
2023-05-24T13:24:08.160Z,72.57
2023-05-24T13:26:38.446Z,72.03
2023-05-24T13:31:38.486Z,72.03
2023-05-24T13:34:07.193Z,71.48
2023-05-24T13:36:34.991Z,72.15
2023-05-24T13:39:14.858Z,72.74
2023-05-24T13:41:44.475Z,72.57
2023-05-24T13:44:16.998Z,71.97
2023-05-24T13:46:45.311Z,72.06
2023-05-24T13:49:19.121Z,71.81
2023-05-24T13:51:50.916Z,72.11
2023-05-24T13:54:32.622Z,71.66
2023-05-24T13:56:59.876Z,71.09
2023-05-24T13:59:27.933Z,70.06
2023-05-24T14:01:54.930Z,70.68
2023-05-24T14:04:21.977Z,71.19
2023-05-24T14:06:49.617Z,71.66
2023-05-24T14:09:16.868Z,71.70
2023-05-24T14:11:45.803Z,71.78
2023-05-24T14:16:43.431Z,71.30
2023-05-24T14:19:11.305Z,71.57
2023-05-24T14:21:38.840Z,72.31
2023-05-24T14:24:05.982Z,72.36
2023-05-24T14:26:33.342Z,72.27
2023-05-24T14:29:00.543Z,71.77
2023-05-24T14:31:27.940Z,72.12
2023-05-24T14:33:54.962Z,71.90
2023-05-24T14:36:22.486Z,71.43
2023-05-24T14:38:49.784Z,70.74
2023-05-24T14:41:17.189Z,71.12
2023-05-24T14:43:44.261Z,70.37
2023-05-24T14:46:11.318Z,70.98
2023-05-24T14:48:41.906Z,71.28
2023-05-24T14:51:08.878Z,70.88
2023-05-24T14:53:36.583Z,71.06
2023-05-24T14:56:05.664Z,70.91
2023-05-24T14:58:32.882Z,71.21
2023-05-24T15:01:00.185Z,71.21
2023-05-24T15:03:27.605Z,71.04
2023-05-24T15:05:55.525Z,70.96
2023-05-24T15:08:22.604Z,71.14
2023-05-24T15:10:49.950Z,71.45
2023-05-24T15:13:18.703Z,71.75
2023-05-24T15:15:45.777Z,71.72
2023-05-24T15:18:13.294Z,71.62
2023-05-24T15:20:41.818Z,71.27
2023-05-24T15:23:11.090Z,71.42
2023-05-24T15:25:39.239Z,71.26
2023-05-24T15:28:06.449Z,71.84
2023-05-24T15:30:34.065Z,71.74
2023-05-24T15:33:01.546Z,72.04
2023-05-24T15:35:28.905Z,72.37
2023-05-24T15:37:56.306Z,72.62
2023-05-24T15:40:24.777Z,72.06
2023-05-24T15:42:53.183Z,72.24
2023-05-24T15:45:20.635Z,72.36
2023-05-24T15:47:48.081Z,72.74
2023-05-24T15:50:15.181Z,72.56
2023-05-24T15:52:42.640Z,72.34
2023-05-24T15:55:10.357Z,72.83
2023-05-24T15:57:37.641Z,73.23
2023-05-24T16:00:05.724Z,73.35
2023-05-24T16:02:32.962Z,73.64
2023-05-24T16:05:01.182Z,73.99
2023-05-24T16:07:28.539Z,74.27
2023-05-24T16:09:55.630Z,73.84
2023-05-24T16:12:23.031Z,73.71
2023-05-24T16:14:50.699Z,73.60
2023-05-24T16:17:18.217Z,73.36
2023-05-24T16:19:50.004Z,73.11
2023-05-24T16:22:17.619Z,72.75
2023-05-24T16:25:06.185Z,72.39
2023-05-24T16:27:38.974Z,72.99
2023-05-24T16:30:20.562Z,73.27
2023-05-24T16:33:00.534Z,73.49
2023-05-24T16:35:46.929Z,73.63
2023-05-24T16:38:28.898Z,73.69
2023-05-24T16:40:56.116Z,73.84
2023-05-24T16:43:23.471Z,73.66
2023-05-24T16:45:51.810Z,73.98
2023-05-24T16:48:21.985Z,74.36
2023-05-24T16:50:50.792Z,74.12
2023-05-24T16:53:18.210Z,74.19
2023-05-24T16:55:59.964Z,74.26
2023-05-24T16:58:38.251Z,73.79
2023-05-24T17:01:05.980Z,73.80
2023-05-24T17:03:34.460Z,73.77
2023-05-24T17:06:03.995Z,73.88
2023-05-24T17:08:36.335Z,73.89
2023-05-24T17:11:07.679Z,73.56
2023-05-24T17:13:34.977Z,74.08
2023-05-24T17:16:04.222Z,74.26
2023-05-24T17:18:31.576Z,74.16
2023-05-24T17:21:00.924Z,74.25
2023-05-24T17:23:31.289Z,74.60
2023-05-24T17:25:59.465Z,74.48
2023-05-24T17:28:27.979Z,74.26
2023-05-24T17:30:56.950Z,74.64
2023-05-24T17:33:25.408Z,74.43
2023-05-24T17:35:56.814Z,74.61
2023-05-24T17:38:25.373Z,74.81
2023-05-24T17:40:59.814Z,74.96
2023-05-24T17:43:33.078Z,74.84
2023-05-24T17:46:07.029Z,74.70
2023-05-24T17:48:39.337Z,74.54
2023-05-24T17:51:08.637Z,74.13
2023-05-24T17:53:38.788Z,74.64
2023-05-24T17:56:06.980Z,74.79
2023-05-24T17:58:37.986Z,74.89
2023-05-24T18:01:07.264Z,75.25
2023-05-24T18:03:37.508Z,75.00
2023-05-24T18:06:07.258Z,75.03
2023-05-24T18:08:38.493Z,75.22
2023-05-24T18:11:09.190Z,75.12
2023-05-24T18:13:38.501Z,75.43
2023-05-24T18:16:07.318Z,75.36
2023-05-24T18:18:35.092Z,75.29
2023-05-24T18:21:02.239Z,75.42
2023-05-24T18:23:29.754Z,75.50
2023-05-24T18:26:00.782Z,75.52
2023-05-24T18:28:30.615Z,75.57
2023-05-24T18:30:58.523Z,75.92
2023-05-24T18:33:25.624Z,75.82
2023-05-24T18:35:53.683Z,76.04
2023-05-24T18:38:21.434Z,75.91
2023-05-24T18:40:48.716Z,76.18
2023-05-24T18:43:15.792Z,76.20
2023-05-24T18:45:42.982Z,76.11
2023-05-24T18:48:11.276Z,76.12
2023-05-24T18:50:38.372Z,76.19
2023-05-24T18:53:06.035Z,76.42
2023-05-24T18:55:33.436Z,76.54
2023-05-24T18:58:00.526Z,76.50
2023-05-24T19:00:28.107Z,77.02
2023-05-24T19:02:56.454Z,77.08
2023-05-24T19:05:23.803Z,77.12
2023-05-24T19:07:50.758Z,77.43
2023-05-24T19:10:18.406Z,77.80
2023-05-24T19:12:46.324Z,77.91
2023-05-24T19:15:13.521Z,77.97
2023-05-24T19:17:41.129Z,78.11
2023-05-24T19:20:08.785Z,77.95
2023-05-24T19:22:36.612Z,77.95
2023-05-24T19:25:04.175Z,78.19
2023-05-24T19:27:31.321Z,78.45
2023-05-24T19:30:00.521Z,78.64
2023-05-24T19:32:27.535Z,78.56
2023-05-24T19:34:55.011Z,78.66
2023-05-24T19:37:22.342Z,78.82
2023-05-24T19:39:50.071Z,78.94
2023-05-24T19:42:17.608Z,78.87
2023-05-24T19:44:44.980Z,78.67
2023-05-24T19:47:12.314Z,78.74
2023-05-24T19:49:39.634Z,78.88
2023-05-24T19:52:07.226Z,78.82
2023-05-24T19:54:34.487Z,78.71
2023-05-24T19:57:02.527Z,78.76
2023-05-24T19:59:30.320Z,78.91
2023-05-24T20:01:57.490Z,78.78
2023-05-24T20:04:25.115Z,79.23
